Time;durP1;ratioP1;P1;durP2;ratioP2;P2;SDS_P1;SDS_P2;PMS_P1;PMS_P2;Temp;Humidity;BMP_temperature;BMP_pressure;BME280_temperature;BME280_humidity;BME280_pressure;Samples;Min_cycle;Max_cycle;Signal;HPM_P1;HPM_P2
2021/12/01 00:00:37;;;;;;;38.65;14.73;;;9.20;99.90;;;;;;5068135;28;20040;-85
2021/12/01 00:03:03;;;;;;;35.35;14.73;;;8.70;99.90;;;;;;5086090;28;20047;-84
2021/12/01 00:05:32;;;;;;;42.92;15.25;;;8.80;99.90;;;;;;5068155;28;20626;-85
2021/12/01 00:07:59;;;;;;;47.33;17.63;;;8.90;99.90;;;;;;5084240;28;20146;-86
2021/12/01 00:10:27;;;;;;;40.67;16.73;;;8.90;99.90;;;;;;5078135;28;20048;-85
2021/12/01 00:12:53;;;;;;;48.63;18.15;;;8.90;99.90;;;;;;5068854;28;20036;-85
2021/12/01 00:15:20;;;;;;;41.15;18.95;;;8.90;99.90;;;;;;5084459;28;20040;-85
2021/12/01 00:17:46;;;;;;;46.83;18.98;;;9.00;99.90;;;;;;5085766;28;20040;-86
2021/12/01 00:20:14;;;;;;;49.25;19.50;;;9.00;99.90;;;;;;5068966;28;20047;-85
2021/12/01 00:22:42;;;;;;;52.00;19.90;;;9.00;99.90;;;;;;5069697;28;20409;-87
2021/12/01 00:25:10;;;;;;;47.58;20.77;;;9.00;99.90;;;;;;5070075;28;20056;-84
2021/12/01 00:27:35;;;;;;;49.47;21.02;;;9.10;99.90;;;;;;5067039;28;20043;-85
2021/12/01 00:30:01;;;;;;;49.47;20.63;;;9.20;99.90;;;;;;5079976;28;20040;-85
2021/12/01 00:32:28;;;;;;;54.72;23.23;;;9.10;99.90;;;;;;5064748;28;20032;-87
2021/12/01 00:34:54;;;;;;;46.83;21.30;;;9.20;99.90;;;;;;5070440;28;20040;-86
2021/12/01 00:37:20;;;;;;;44.63;19.80;;;9.20;99.90;;;;;;5069409;28;20044;-85
2021/12/01 00:39:46;;;;;;;42.92;19.30;;;9.20;99.90;;;;;;5066114;28;20044;-85
2021/12/01 00:42:12;;;;;;;49.97;22.08;;;9.20;99.90;;;;;;5068313;28;20043;-85
2021/12/01 00:44:45;;;;;;;45.92;20.40;;;9.20;99.90;;;;;;5068520;28;20036;-86
2021/12/01 00:47:12;;;;;;;49.15;21.10;;;9.20;99.90;;;;;;5064350;28;20278;-85
2021/12/01 00:49:39;;;;;;;50.42;20.83;;;9.20;99.90;;;;;;5063944;28;20086;-87
2021/12/01 00:52:05;;;;;;;47.22;19.15;;;9.20;99.90;;;;;;5063128;28;20039;-85
2021/12/01 00:54:31;;;;;;;41.42;19.02;;;9.20;99.90;;;;;;5062037;28;20074;-84
2021/12/01 00:56:57;;;;;;;38.47;19.02;;;9.20;99.90;;;;;;5066765;28;20543;-85
2021/12/01 00:59:23;;;;;;;39.67;18.02;;;9.30;99.90;;;;;;5067369;28;20101;-86
2021/12/01 01:01:48;;;;;;;45.08;19.13;;;9.20;99.90;;;;;;5062544;28;20040;-87
2021/12/01 01:04:14;;;;;;;34.75;17.17;;;9.20;99.90;;;;;;5084833;28;20106;-84
2021/12/01 01:06:42;;;;;;;32.95;17.95;;;9.30;99.90;;;;;;5064480;28;20102;-84
2021/12/01 01:09:09;;;;;;;37.20;15.80;;;9.30;99.90;;;;;;5068040;28;20582;-86
2021/12/01 01:18:05;;;;;;;32.10;14.82;;;9.30;99.90;;;;;;5052316;28;20075;-90
2021/12/01 01:19:59;;;;;;;33.03;13.38;;;9.30;99.90;;;;;;5070999;28;20482;-87
2021/12/01 01:22:24;;;;;;;30.67;13.77;;;9.40;99.90;;;;;;5064512;28;20071;-85
2021/12/01 01:24:50;;;;;;;32.28;12.52;;;9.60;99.90;;;;;;5071367;28;20056;-91
2021/12/01 01:27:16;;;;;;;27.67;12.77;;;9.30;99.90;;;;;;5068479;28;20048;-91
2021/12/01 01:29:42;;;;;;;24.13;13.15;;;9.30;99.90;;;;;;5068572;28;20040;-88
2021/12/01 01:32:11;;;;;;;28.88;12.88;;;9.30;99.90;;;;;;5067701;28;20036;-88
2021/12/01 01:34:37;;;;;;;30.35;12.25;;;9.30;99.90;;;;;;5072687;28;20131;-90
2021/12/01 01:37:03;;;;;;;29.48;12.10;;;9.30;99.90;;;;;;5064223;28;20175;-88
2021/12/01 01:39:28;;;;;;;28.00;11.45;;;9.30;99.90;;;;;;5066395;28;20178;-88
2021/12/01 01:41:54;;;;;;;28.38;10.25;;;9.40;99.90;;;;;;5084157;28;20056;-81
2021/12/01 01:44:20;;;;;;;25.27;10.38;;;9.30;99.90;;;;;;5087410;28;20094;-92
2021/12/01 01:46:46;;;;;;;24.50;10.85;;;9.30;99.90;;;;;;5066234;28;20052;-89
2021/12/01 01:49:19;;;;;;;21.00;7.50;;;9.40;99.90;;;;;;5085236;28;20306;-90
2021/12/01 01:51:49;;;;;;;25.52;7.70;;;9.30;99.90;;;;;;5080993;28;20040;-92
2021/12/01 01:54:16;;;;;;;29.70;7.55;;;9.40;99.90;;;;;;5070040;28;20050;-88
2021/12/01 01:56:42;;;;;;;21.38;6.90;;;9.40;99.90;;;;;;5071412;28;20393;-85
2021/12/01 01:59:11;;;;;;;17.90;5.90;;;9.80;99.90;;;;;;5055735;28;20387;-88
2021/12/01 02:01:46;;;;;;;18.52;5.68;;;9.80;99.90;;;;;;5056426;28;20032;-80
2021/12/01 02:04:17;;;;;;;23.17;4.50;;;9.40;99.90;;;;;;5079011;28;20040;-80
2021/12/01 02:06:47;;;;;;;14.35;4.55;;;9.40;99.90;;;;;;5083048;28;20032;-78
2021/12/01 02:09:14;;;;;;;16.98;5.45;;;9.50;99.90;;;;;;5078151;28;20044;-79
2021/12/01 02:11:40;;;;;;;14.30;4.35;;;9.40;99.90;;;;;;5079174;28;20129;-79
2021/12/01 02:14:07;;;;;;;20.67;4.07;;;9.40;99.90;;;;;;5081542;28;20135;-78
2021/12/01 02:16:34;;;;;;;16.13;3.90;;;9.50;99.90;;;;;;5080005;28;20067;-79
2021/12/01 02:18:59;;;;;;;12.52;2.88;;;9.50;99.90;;;;;;5067230;28;20040;-79
2021/12/01 02:21:27;;;;;;;11.80;3.08;;;9.40;99.90;;;;;;5079307;28;20051;-77
2021/12/01 02:23:55;;;;;;;9.40;2.60;;;9.50;99.90;;;;;;5081391;28;20091;-84
2021/12/01 02:26:21;;;;;;;12.25;2.28;;;9.50;99.90;;;;;;5080722;28;20514;-81
2021/12/01 02:28:56;;;;;;;9.48;2.22;;;9.50;99.90;;;;;;5083319;28;20040;-83
2021/12/01 02:31:25;;;;;;;11.82;1.90;;;9.70;99.90;;;;;;5079953;28;20097;-82
2021/12/01 02:33:53;;;;;;;5.05;1.42;;;9.50;99.90;;;;;;5082043;28;20040;-89
2021/12/01 02:36:19;;;;;;;7.57;1.60;;;9.50;99.90;;;;;;5066095;28;20044;-86
2021/12/01 02:38:47;;;;;;;12.45;1.98;;;9.50;99.90;;;;;;5092726;28;20641;-88
2021/12/01 02:41:13;;;;;;;8.35;1.98;;;9.50;99.90;;;;;;5068118;28;20396;-85
2021/12/01 02:43:40;;;;;;;10.27;2.35;;;9.70;99.90;;;;;;5067830;28;20408;-86
2021/12/01 02:46:06;;;;;;;17.13;2.50;;;9.50;99.90;;;;;;5082141;28;20043;-88
2021/12/01 02:48:35;;;;;;;11.10;2.42;;;9.60;99.90;;;;;;5081914;28;20040;-86
2021/12/01 02:51:04;;;;;;;12.73;2.60;;;9.50;99.90;;;;;;5063308;28;20043;-87
2021/12/01 02:53:29;;;;;;;13.13;2.10;;;9.80;99.90;;;;;;5063586;28;20055;-86
2021/12/01 02:55:58;;;;;;;14.45;2.50;;;9.80;99.90;;;;;;5075375;28;20513;-86
2021/12/01 02:58:25;;;;;;;12.77;2.30;;;9.50;99.90;;;;;;5066566;28;20543;-86
2021/12/01 03:00:53;;;;;;;10.50;2.83;;;9.50;99.90;;;;;;5067899;28;20044;-88
2021/12/01 03:03:21;;;;;;;16.25;2.03;;;9.50;99.90;;;;;;5066699;28;20139;-85
2021/12/01 03:05:48;;;;;;;11.55;2.10;;;9.50;99.90;;;;;;5066566;28;20131;-84
2021/12/01 03:08:16;;;;;;;9.80;1.83;;;9.50;99.90;;;;;;5063513;28;20050;-84
2021/12/01 03:10:48;;;;;;;9.82;2.00;;;9.60;99.90;;;;;;5061448;28;20117;-86
2021/12/01 03:13:15;;;;;;;13.00;2.35;;;9.60;99.90;;;;;;5083759;28;20083;-84
2021/12/01 03:15:42;;;;;;;18.05;2.88;;;9.60;99.90;;;;;;5078346;28;20399;-78
2021/12/01 03:18:08;;;;;;;15.38;2.28;;;9.60;99.90;;;;;;5087012;28;20062;-84
2021/12/01 03:20:34;;;;;;;18.65;2.72;;;9.60;99.90;;;;;;5069715;28;20039;-88
2021/12/01 03:23:00;;;;;;;15.70;1.90;;;10.20;99.90;;;;;;5089713;28;20072;-83
2021/12/01 03:25:27;;;;;;;6.80;1.48;;;9.60;99.90;;;;;;5082130;28;20133;-87
2021/12/01 03:27:53;;;;;;;8.63;1.67;;;9.60;99.90;;;;;;5088898;28;20070;-84
2021/12/01 03:30:19;;;;;;;10.85;2.45;;;9.60;99.90;;;;;;5085609;28;20044;-86
2021/12/01 03:32:45;;;;;;;12.20;1.75;;;9.60;99.90;;;;;;5078413;28;20237;-82
2021/12/01 03:35:14;;;;;;;21.23;2.78;;;9.60;99.90;;;;;;5073221;28;20031;-81
2021/12/01 03:37:42;;;;;;;19.08;2.20;;;9.60;99.90;;;;;;5087245;28;20052;-83
2021/12/01 03:40:09;;;;;;;22.50;2.50;;;9.60;99.90;;;;;;5085974;28;20032;-83
2021/12/01 03:42:35;;;;;;;15.90;3.22;;;9.60;99.90;;;;;;5064644;28;20040;-83
2021/12/01 03:45:02;;;;;;;21.70;3.28;;;9.80;99.90;;;;;;5082172;28;20047;-83
2021/12/01 03:47:28;;;;;;;18.10;3.22;;;9.60;99.90;;;;;;5084796;28;20090;-84
2021/12/01 03:49:54;;;;;;;13.88;2.67;;;9.50;99.90;;;;;;5076641;28;20044;-79
2021/12/01 03:52:20;;;;;;;15.00;2.60;;;9.50;99.90;;;;;;5065685;28;20051;-83
2021/12/01 03:54:47;;;;;;;22.70;2.97;;;9.50;99.90;;;;;;5068117;28;20044;-83
2021/12/01 03:57:14;;;;;;;19.95;2.38;;;9.50;99.90;;;;;;5063340;28;20080;-83
2021/12/01 03:59:40;;;;;;;26.17;2.72;;;9.50;99.90;;;;;;5092939;28;20036;-84
2021/12/01 04:02:06;;;;;;;24.20;3.30;;;9.70;99.90;;;;;;5084521;28;20050;-85
2021/12/01 04:04:32;;;;;;;26.98;4.00;;;10.00;99.90;;;;;;5084012;28;20126;-82
2021/12/01 04:06:58;;;;;;;30.80;3.22;;;9.50;99.90;;;;;;5082497;28;20079;-81
2021/12/01 04:09:25;;;;;;;22.38;2.83;;;9.50;99.90;;;;;;5090915;28;20141;-82
2021/12/01 04:11:51;;;;;;;16.92;3.08;;;9.50;99.90;;;;;;5081487;28;20048;-83
2021/12/01 04:14:17;;;;;;;22.33;2.83;;;9.50;99.90;;;;;;5085254;28;20170;-83
2021/12/01 04:16:43;;;;;;;23.60;3.25;;;9.40;99.90;;;;;;5074859;28;20127;-84
2021/12/01 04:19:12;;;;;;;20.33;2.92;;;9.40;99.90;;;;;;5068248;28;20074;-85
2021/12/01 04:21:39;;;;;;;16.80;2.92;;;9.50;99.90;;;;;;5084941;28;20051;-77
2021/12/01 04:24:05;;;;;;;16.73;2.60;;;9.50;99.90;;;;;;5061295;28;20408;-79
2021/12/01 04:26:33;;;;;;;18.58;3.00;;;9.40;99.90;;;;;;5065874;28;20504;-79
2021/12/01 04:29:00;;;;;;;15.23;2.80;;;9.40;99.90;;;;;;5079350;28;20139;-78
2021/12/01 04:31:28;;;;;;;19.25;2.35;;;9.40;99.90;;;;;;5064262;28;20443;-79
2021/12/01 04:33:55;;;;;;;12.63;2.17;;;9.40;99.90;;;;;;5084674;28;20059;-79
2021/12/01 04:36:21;;;;;;;13.27;2.05;;;9.40;99.90;;;;;;5065938;28;20048;-79
2021/12/01 04:38:47;;;;;;;13.13;2.10;;;9.40;99.90;;;;;;5067135;28;20480;-79
2021/12/01 04:41:14;;;;;;;13.35;2.05;;;9.40;99.90;;;;;;5081901;28;20055;-80
2021/12/01 04:43:40;;;;;;;16.50;2.58;;;9.40;99.90;;;;;;5085791;28;20122;-79
2021/12/01 04:46:06;;;;;;;8.70;1.77;;;9.40;99.90;;;;;;5065289;28;20040;-79
2021/12/01 04:48:32;;;;;;;6.65;1.70;;;9.40;99.90;;;;;;5093519;28;20316;-79
2021/12/01 04:51:00;;;;;;;10.65;2.08;;;9.40;99.90;;;;;;5070911;28;20044;-78
2021/12/01 04:53:27;;;;;;;7.88;1.80;;;9.40;99.90;;;;;;5079730;28;20082;-78
2021/12/01 04:55:54;;;;;;;8.55;1.80;;;9.50;99.90;;;;;;5084216;28;20192;-80
2021/12/01 04:58:20;;;;;;;7.78;2.00;;;9.40;99.90;;;;;;5058757;28;20055;-79
2021/12/01 05:00:47;;;;;;;9.00;2.50;;;9.50;99.90;;;;;;5081011;28;20129;-78
2021/12/01 05:03:13;;;;;;;8.20;2.63;;;9.50;99.90;;;;;;5063508;28;20042;-77
2021/12/01 05:05:38;;;;;;;8.75;2.40;;;9.60;99.90;;;;;;5084194;28;20248;-77
2021/12/01 05:08:04;;;;;;;7.25;2.20;;;9.40;99.90;;;;;;5075973;28;20051;-78
2021/12/01 05:10:30;;;;;;;7.85;2.70;;;9.40;99.90;;;;;;5074919;28;20032;-77
2021/12/01 05:12:56;;;;;;;6.22;2.50;;;9.40;99.90;;;;;;5065105;28;20044;-77
2021/12/01 05:15:22;;;;;;;4.63;2.20;;;9.40;99.90;;;;;;5063591;28;20044;-78
2021/12/01 05:17:49;;;;;;;8.48;2.50;;;9.40;99.90;;;;;;5085198;28;20182;-78
2021/12/01 05:20:15;;;;;;;5.00;1.88;;;9.40;99.90;;;;;;5062553;28;20127;-77
2021/12/01 05:22:42;;;;;;;3.40;1.80;;;9.30;99.90;;;;;;5054898;28;20075;-78
2021/12/01 05:25:11;;;;;;;5.85;1.20;;;9.40;99.90;;;;;;5076592;28;20051;-77
2021/12/01 05:27:38;;;;;;;4.45;1.42;;;9.40;99.90;;;;;;5076674;28;20052;-78
2021/12/01 05:30:05;;;;;;;2.10;1.10;;;9.30;99.90;;;;;;5079706;28;20128;-77
2021/12/01 05:32:31;;;;;;;5.80;1.15;;;9.30;99.90;;;;;;5060298;28;20040;-77
2021/12/01 05:34:58;;;;;;;2.33;0.88;;;9.30;99.90;;;;;;5062043;28;20409;-76
2021/12/01 05:37:24;;;;;;;2.80;1.00;;;9.30;99.90;;;;;;5077757;28;20071;-76
2021/12/01 05:39:49;;;;;;;2.55;1.10;;;9.20;99.90;;;;;;5076882;28;20492;-77
2021/12/01 05:42:16;;;;;;;2.03;0.90;;;9.30;99.90;;;;;;5078186;28;20416;-78
2021/12/01 05:44:43;;;;;;;2.00;0.80;;;9.20;99.90;;;;;;5076332;28;20075;-77
2021/12/01 05:47:09;;;;;;;2.35;1.00;;;9.20;99.90;;;;;;5081102;28;20055;-78
2021/12/01 05:49:41;;;;;;;1.95;0.98;;;9.10;99.90;;;;;;5070735;28;20307;-77
2021/12/01 05:52:08;;;;;;;2.38;1.00;;;9.20;99.90;;;;;;5085521;28;20557;-77
2021/12/01 05:54:34;;;;;;;3.65;1.20;;;9.20;99.90;;;;;;5082517;28;20052;-78
2021/12/01 05:57:00;;;;;;;3.38;1.75;;;9.10;99.90;;;;;;5080841;28;20051;-78
2021/12/01 05:59:25;;;;;;;5.15;1.70;;;9.10;99.90;;;;;;5074448;28;20620;-80
2021/12/01 06:01:51;;;;;;;3.90;1.75;;;9.10;99.90;;;;;;5075437;28;20045;-77
2021/12/01 06:04:17;;;;;;;2.72;1.45;;;9.10;99.90;;;;;;5066526;28;20032;-78
2021/12/01 06:06:42;;;;;;;3.88;1.58;;;9.10;99.90;;;;;;5074547;28;20062;-76
2021/12/01 06:09:08;;;;;;;4.82;1.80;;;9.10;99.90;;;;;;5064846;28;20082;-76
2021/12/01 06:11:34;;;;;;;5.03;1.80;;;9.10;99.90;;;;;;5070463;28;20040;-77
2021/12/01 06:14:01;;;;;;;6.45;2.15;;;9.10;99.90;;;;;;5085824;28;20508;-75
2021/12/01 06:16:26;;;;;;;5.47;2.45;;;9.10;99.90;;;;;;5065559;28;20052;-76
2021/12/01 06:18:52;;;;;;;5.85;2.60;;;9.10;99.90;;;;;;5061129;28;20051;-76
2021/12/01 06:21:18;;;;;;;5.90;2.83;;;9.00;99.90;;;;;;5041314;28;20675;-80
2021/12/01 06:23:44;;;;;;;5.82;2.70;;;9.10;99.90;;;;;;5062633;28;20638;-82
2021/12/01 06:26:09;;;;;;;5.55;2.50;;;9.00;99.90;;;;;;5088967;28;20044;-81
2021/12/01 06:28:35;;;;;;;5.03;2.40;;;9.00;99.90;;;;;;5085461;28;20044;-78
2021/12/01 06:31:01;;;;;;;5.88;2.03;;;8.90;99.90;;;;;;5077821;28;20036;-80
2021/12/01 06:33:27;;;;;;;4.38;2.10;;;9.30;99.90;;;;;;5060805;28;20048;-80
2021/12/01 06:35:53;;;;;;;6.35;1.95;;;8.90;99.90;;;;;;5091876;28;20313;-80
2021/12/01 06:38:19;;;;;;;3.65;2.10;;;8.90;99.90;;;;;;5060530;28;20131;-79
2021/12/01 06:40:47;;;;;;;3.85;1.88;;;8.90;99.90;;;;;;5077515;28;20070;-81
2021/12/01 06:43:13;;;;;;;6.32;1.70;;;8.80;99.90;;;;;;5075532;28;20143;-81
2021/12/01 06:45:39;;;;;;;5.20;1.92;;;9.00;99.90;;;;;;5074682;28;20119;-78
2021/12/01 06:48:05;;;;;;;4.43;1.92;;;8.90;99.90;;;;;;5060096;28;20090;-79
2021/12/01 06:50:31;;;;;;;3.85;1.85;;;8.90;99.90;;;;;;5078771;28;20066;-79
2021/12/01 06:52:57;;;;;;;4.20;1.90;;;8.90;99.90;;;;;;5078794;28;20037;-84
2021/12/01 06:55:23;;;;;;;4.20;1.80;;;8.80;99.90;;;;;;5063855;28;20079;-83
2021/12/01 06:57:49;;;;;;;3.70;1.70;;;8.90;99.90;;;;;;5074333;28;20532;-82
2021/12/01 07:00:17;;;;;;;4.43;2.20;;;8.80;99.90;;;;;;5063594;28;20066;-81
2021/12/01 07:02:43;;;;;;;5.03;2.40;;;9.10;99.90;;;;;;5082189;28;20044;-81
2021/12/01 07:05:10;;;;;;;4.93;2.33;;;8.80;99.90;;;;;;5065286;28;20050;-81
2021/12/01 07:07:36;;;;;;;5.60;2.45;;;8.80;99.90;;;;;;5077109;28;20777;-80
2021/12/01 07:10:06;;;;;;;6.55;2.70;;;8.80;99.90;;;;;;5065585;28;20067;-81
2021/12/01 07:12:31;;;;;;;5.63;3.05;;;8.80;99.90;;;;;;5065253;28;20040;-81
2021/12/01 07:14:57;;;;;;;7.07;2.90;;;9.00;99.90;;;;;;5059188;28;20049;-79
2021/12/01 07:17:22;;;;;;;10.38;3.03;;;8.80;99.90;;;;;;5060051;28;20178;-80
2021/12/01 07:19:48;;;;;;;6.70;3.08;;;8.80;99.90;;;;;;5062074;28;20127;-78
2021/12/01 07:22:14;;;;;;;6.32;3.03;;;9.30;99.90;;;;;;5059824;28;20524;-78
2021/12/01 07:24:40;;;;;;;8.00;3.25;;;8.80;99.90;;;;;;5065618;28;20043;-77
2021/12/01 07:27:06;;;;;;;8.35;3.00;;;8.80;99.90;;;;;;5066889;28;20804;-77
2021/12/01 07:29:34;;;;;;;8.48;3.55;;;8.90;99.90;;;;;;5059495;28;20044;-78
2021/12/01 07:32:00;;;;;;;9.15;3.55;;;8.80;99.90;;;;;;5072128;28;20051;-77
2021/12/01 07:34:26;;;;;;;7.75;3.60;;;8.90;99.90;;;;;;5067383;28;20402;-78
2021/12/01 07:36:51;;;;;;;7.80;3.17;;;8.90;99.90;;;;;;5083995;28;20532;-80
2021/12/01 07:39:19;;;;;;;9.75;4.05;;;8.90;99.90;;;;;;5069071;28;20101;-81
2021/12/01 07:41:45;;;;;;;11.77;4.97;;;8.90;99.90;;;;;;5054556;28;20052;-80
2021/12/01 07:44:11;;;;;;;9.85;3.85;;;8.90;99.90;;;;;;5061275;28;20048;-79
2021/12/01 07:46:37;;;;;;;12.20;4.07;;;8.90;99.90;;;;;;5073422;28;20043;-81
2021/12/01 07:49:03;;;;;;;12.50;4.70;;;8.90;99.90;;;;;;5072088;28;20432;-79
2021/12/01 07:51:28;;;;;;;9.18;4.55;;;8.90;99.90;;;;;;5052654;28;20827;-77
2021/12/01 07:53:55;;;;;;;14.88;4.50;;;9.00;99.90;;;;;;5078698;28;20053;-79
2021/12/01 07:56:21;;;;;;;12.48;4.13;;;9.00;99.90;;;;;;5045826;28;20160;-76
2021/12/01 07:58:47;;;;;;;9.60;4.07;;;9.00;99.90;;;;;;5065534;28;20056;-75
2021/12/01 08:01:12;;;;;;;9.90;4.03;;;9.10;99.90;;;;;;5059250;28;20516;-77
2021/12/01 08:03:38;;;;;;;9.63;3.85;;;9.00;99.90;;;;;;5047295;28;20330;-76
2021/12/01 08:06:04;;;;;;;12.23;3.83;;;9.00;99.90;;;;;;5062829;28;20041;-76
2021/12/01 08:08:30;;;;;;;8.68;3.75;;;9.00;99.90;;;;;;5076938;28;20044;-78
2021/12/01 08:10:56;;;;;;;13.80;3.60;;;9.00;99.90;;;;;;5063107;28;20079;-78
2021/12/01 08:13:22;;;;;;;8.50;2.85;;;9.00;99.90;;;;;;5058112;28;20105;-79
2021/12/01 08:15:48;;;;;;;6.55;2.92;;;9.10;99.90;;;;;;5056539;28;20118;-79
2021/12/01 08:18:15;;;;;;;9.85;3.78;;;9.10;99.90;;;;;;5051903;28;20040;-82
2021/12/01 08:20:41;;;;;;;11.65;3.30;;;9.00;99.90;;;;;;5076820;28;20044;-76
2021/12/01 08:23:07;;;;;;;10.75;3.83;;;9.10;99.90;;;;;;5073994;28;20490;-76
2021/12/01 08:25:34;;;;;;;8.68;3.38;;;9.10;99.90;;;;;;5050836;28;20048;-80
2021/12/01 08:28:02;;;;;;;10.75;3.65;;;9.10;99.90;;;;;;5049901;28;20040;-81
2021/12/01 08:30:28;;;;;;;13.82;4.40;;;9.20;99.90;;;;;;5039253;28;20575;-82
2021/12/01 08:32:54;;;;;;;9.23;1.98;;;9.00;99.90;;;;;;5073006;28;20048;-77
2021/12/01 08:35:20;;;;;;;4.38;1.60;;;9.00;99.90;;;;;;5076720;28;20082;-86
2021/12/01 08:37:46;;;;;;;9.63;2.25;;;8.90;99.90;;;;;;5051109;28;20041;-85
2021/12/01 08:40:16;;;;;;;12.43;2.00;;;8.90;99.90;;;;;;5050659;28;20066;-82
2021/12/01 08:42:42;;;;;;;11.80;1.90;;;8.90;99.90;;;;;;5050174;28;20044;-82
2021/12/01 08:45:09;;;;;;;14.75;1.95;;;8.80;99.90;;;;;;5063988;28;20468;-85
2021/12/01 08:47:35;;;;;;;12.88;2.00;;;8.80;99.90;;;;;;5063032;28;20040;-78
2021/12/01 08:50:01;;;;;;;13.30;2.65;;;8.80;99.90;;;;;;5069673;28;20087;-77
2021/12/01 08:52:27;;;;;;;18.50;2.60;;;8.70;99.90;;;;;;5066897;28;20052;-80
2021/12/01 08:54:53;;;;;;;19.17;2.08;;;8.70;99.90;;;;;;5076182;28;20122;-76
2021/12/01 08:57:19;;;;;;;13.40;2.38;;;8.70;99.90;;;;;;5063610;28;20382;-75
2021/12/01 08:59:45;;;;;;;12.65;1.92;;;8.90;99.90;;;;;;5067936;27;20669;-75
2021/12/01 09:02:11;;;;;;;11.90;2.05;;;8.70;99.90;;;;;;5082473;27;20043;-83
2021/12/01 09:04:37;;;;;;;9.43;1.70;;;8.70;99.90;;;;;;5060349;28;20454;-82
2021/12/01 09:07:04;;;;;;;17.00;2.03;;;8.70;99.90;;;;;;5068338;28;20047;-79
2021/12/01 09:09:30;;;;;;;17.60;2.30;;;8.60;99.90;;;;;;5072962;28;20039;-84
2021/12/01 09:11:56;;;;;;;12.00;2.30;;;8.60;99.90;;;;;;5054219;28;20097;-79
2021/12/01 09:14:23;;;;;;;8.88;1.35;;;8.60;99.90;;;;;;5051631;28;20185;-84
2021/12/01 09:16:50;;;;;;;8.77;1.00;;;8.60;99.90;;;;;;5054469;28;20533;-81
2021/12/01 09:19:17;;;;;;;15.07;1.70;;;8.70;99.90;;;;;;5067068;28;20078;-84
2021/12/01 09:21:43;;;;;;;11.93;1.45;;;8.60;99.90;;;;;;5047832;28;20579;-85
2021/12/01 09:24:09;;;;;;;10.82;1.20;;;8.60;99.90;;;;;;5052723;28;20816;-84
2021/12/01 09:26:35;;;;;;;7.80;1.48;;;8.60;99.90;;;;;;5057245;28;20131;-84
2021/12/01 09:29:02;;;;;;;8.63;1.50;;;8.60;99.90;;;;;;5078639;28;20047;-88
2021/12/01 09:31:28;;;;;;;11.40;1.40;;;8.50;99.90;;;;;;5075385;28;20063;-83
2021/12/01 09:33:54;;;;;;;9.93;1.25;;;8.50;99.90;;;;;;5076306;28;20586;-85
2021/12/01 09:36:20;;;;;;;19.90;2.65;;;8.60;99.90;;;;;;5052178;27;20130;-84
2021/12/01 09:38:45;;;;;;;10.02;1.58;;;8.50;99.90;;;;;;5074123;28;20563;-84
2021/12/01 09:41:12;;;;;;;14.02;1.63;;;8.50;99.90;;;;;;5063019;28;20432;-84
2021/12/01 09:43:39;;;;;;;13.15;1.48;;;8.50;99.90;;;;;;5077397;28;20460;-86
2021/12/01 09:46:08;;;;;;;9.77;1.83;;;8.50;99.90;;;;;;5076854;28;20054;-84
2021/12/01 09:48:36;;;;;;;11.68;1.48;;;8.40;99.90;;;;;;5088277;28;20047;-84
2021/12/01 09:51:02;;;;;;;11.75;1.20;;;8.50;99.90;;;;;;5088063;28;20055;-85
2021/12/01 09:53:28;;;;;;;11.93;1.33;;;8.50;99.90;;;;;;5070773;28;20063;-84
2021/12/01 09:55:54;;;;;;;15.48;1.85;;;8.50;99.90;;;;;;5048692;28;20256;-85
2021/12/01 09:58:23;;;;;;;21.33;1.92;;;8.50;99.90;;;;;;5050337;28;20070;-83
2021/12/01 10:00:56;;;;;;;14.57;1.90;;;8.60;99.90;;;;;;5052239;28;20047;-83
2021/12/01 10:03:22;;;;;;;17.63;1.98;;;8.60;99.90;;;;;;5060067;28;20446;-82
2021/12/01 10:06:03;;;;;;;17.95;1.77;;;8.60;99.90;;;;;;5069270;28;20052;-82
2021/12/01 10:08:35;;;;;;;20.55;2.13;;;8.60;99.90;;;;;;5059490;28;20040;-85
2021/12/01 10:11:13;;;;;;;15.02;1.65;;;8.70;99.90;;;;;;5055917;28;20059;-86
2021/12/01 10:13:44;;;;;;;17.30;2.17;;;8.70;99.90;;;;;;5069692;28;20052;-85
2021/12/01 10:16:12;;;;;;;21.30;2.55;;;8.70;99.90;;;;;;5047691;28;20040;-84
2021/12/01 10:18:43;;;;;;;18.63;2.95;;;8.70;99.90;;;;;;5046019;28;20076;-84
2021/12/01 10:21:21;;;;;;;17.17;2.22;;;8.70;99.90;;;;;;5056389;28;20137;-79
2021/12/01 10:23:56;;;;;;;16.65;2.67;;;8.70;99.90;;;;;;5073543;28;20071;-78
2021/12/01 10:26:31;;;;;;;23.83;4.55;;;8.70;99.90;;;;;;5075172;28;20104;-79
2021/12/01 10:29:06;;;;;;;20.13;2.65;;;8.60;99.90;;;;;;5056844;28;20035;-80
2021/12/01 10:31:37;;;;;;;26.38;3.22;;;8.60;99.90;;;;;;5058565;28;20047;-77
2021/12/01 10:34:13;;;;;;;16.40;2.45;;;8.60;99.90;;;;;;5071798;28;20048;-76
2021/12/01 10:36:39;;;;;;;16.92;2.28;;;8.50;99.90;;;;;;5073555;28;20040;-77
2021/12/01 10:39:05;;;;;;;16.58;2.17;;;8.20;99.90;;;;;;5049320;28;20058;-77
2021/12/01 10:41:38;;;;;;;20.08;3.38;;;8.40;99.90;;;;;;5072491;28;20040;-74
2021/12/01 10:44:18;;;;;;;20.33;2.63;;;8.40;99.90;;;;;;5060593;28;20054;-76
2021/12/01 10:46:49;;;;;;;25.58;2.42;;;8.40;99.90;;;;;;5057555;28;20547;-76
2021/12/01 10:49:17;;;;;;;22.83;2.80;;;8.40;99.90;;;;;;5060242;28;20160;-78
2021/12/01 10:51:45;;;;;;;21.70;2.80;;;8.40;99.90;;;;;;5077157;28;20130;-76
2021/12/01 10:54:19;;;;;;;17.52;1.80;;;8.40;99.90;;;;;;5058117;28;20048;-77
2021/12/01 10:56:46;;;;;;;16.10;2.03;;;8.50;99.90;;;;;;5071221;28;20047;-76
2021/12/01 10:59:15;;;;;;;9.18;1.50;;;8.50;99.90;;;;;;5074564;28;21151;-77
2021/12/01 11:01:41;;;;;;;12.77;1.73;;;8.70;99.90;;;;;;5059150;28;20092;-78
2021/12/01 11:04:07;;;;;;;15.93;2.70;;;8.60;99.90;;;;;;5080563;28;20048;-78
2021/12/01 11:06:40;;;;;;;11.43;2.03;;;8.50;99.90;;;;;;5056133;28;20052;-79
2021/12/01 11:09:07;;;;;;;15.52;2.83;;;8.50;99.90;;;;;;5070166;28;20086;-76
2021/12/01 11:11:42;;;;;;;19.23;2.65;;;8.50;99.90;;;;;;5075830;28;20349;-77
2021/12/01 11:14:14;;;;;;;17.70;2.30;;;8.40;99.90;;;;;;5069679;28;20051;-75
2021/12/01 11:16:41;;;;;;;18.98;3.00;;;8.40;99.90;;;;;;5057798;28;20050;-79
2021/12/01 11:19:08;;;;;;;18.20;2.05;;;8.40;99.90;;;;;;5061270;28;20044;-77
2021/12/01 11:21:35;;;;;;;19.05;2.33;;;8.40;99.90;;;;;;5059447;28;20047;-76
2021/12/01 11:24:09;;;;;;;20.90;2.88;;;8.40;99.90;;;;;;5078314;28;20043;-76
2021/12/01 11:26:36;;;;;;;21.70;3.35;;;8.40;99.90;;;;;;5081562;28;20126;-76
2021/12/01 11:29:15;;;;;;;20.20;2.65;;;8.40;99.90;;;;;;5063117;28;20050;-76
2021/12/01 11:31:46;;;;;;;22.55;3.50;;;8.40;99.90;;;;;;5092570;28;20051;-77
2021/12/01 11:34:17;;;;;;;25.85;3.45;;;8.40;99.90;;;;;;5076275;28;20097;-76
2021/12/01 11:36:49;;;;;;;24.15;3.60;;;8.40;99.90;;;;;;5062896;28;20040;-76
2021/12/01 11:39:21;;;;;;;;;;;8.40;99.90;;;;;;5068459;28;20123;-79
2021/12/01 11:41:49;;;;;;;26.67;3.55;;;8.40;99.90;;;;;;5100649;27;19981;-79
2021/12/01 11:44:18;;;;;;;24.27;3.20;;;8.40;99.90;;;;;;5071965;28;20043;-79
2021/12/01 11:46:44;;;;;;;26.85;3.88;;;8.50;99.90;;;;;;5068743;28;20039;-74
2021/12/01 11:49:12;;;;;;;21.90;3.38;;;8.30;99.90;;;;;;5068549;28;20047;-75
2021/12/01 11:51:50;;;;;;;23.40;3.25;;;8.20;99.90;;;;;;5084131;28;20443;-75
2021/12/01 11:54:19;;;;;;;23.15;3.53;;;8.30;99.90;;;;;;5067797;28;20043;-80
2021/12/01 11:56:55;;;;;;;23.88;2.83;;;8.10;99.90;;;;;;5071014;28;20085;-80
2021/12/01 11:59:29;;;;;;;26.10;3.97;;;8.10;99.90;;;;;;5064268;28;20446;-77
2021/12/01 12:01:55;;;;;;;22.52;3.20;;;8.00;99.90;;;;;;5063536;28;20055;-78
2021/12/01 12:04:24;;;;;;;21.90;3.70;;;8.00;99.90;;;;;;5080887;28;21216;-78
2021/12/01 12:07:14;;;;;;;19.92;2.92;;;8.00;99.90;;;;;;5083455;28;20125;-80
2021/12/01 12:09:41;;;;;;;18.45;3.58;;;8.00;99.90;;;;;;5062498;28;20043;-81
2021/12/01 12:12:11;;;;;;;18.85;2.47;;;7.80;99.90;;;;;;5075139;28;20520;-80
2021/12/01 12:14:45;;;;;;;23.45;2.60;;;7.90;99.90;;;;;;5061479;28;20055;-79
2021/12/01 12:17:13;;;;;;;16.25;2.85;;;7.90;99.90;;;;;;5081274;28;20040;-80
2021/12/01 12:19:50;;;;;;;20.77;2.80;;;8.10;99.90;;;;;;5064678;28;20073;-80
2021/12/01 12:22:44;;;;;;;22.42;3.38;;;8.00;99.90;;;;;;5072607;28;20035;-82
2021/12/01 12:25:32;;;;;;;20.58;2.70;;;7.90;99.90;;;;;;5063920;28;20062;-81
2021/12/01 12:27:58;;;;;;;25.13;2.83;;;8.00;99.90;;;;;;5074759;28;20051;-80
2021/12/01 12:30:30;;;;;;;25.90;2.92;;;8.00;99.90;;;;;;5053646;28;20044;-80
2021/12/01 12:33:20;;;;;;;17.40;2.50;;;8.00;99.90;;;;;;5096707;28;20659;-82
2021/12/01 12:35:48;;;;;;;20.15;2.88;;;8.00;99.90;;;;;;5078401;28;20092;-80
2021/12/01 12:38:15;;;;;;;15.65;2.20;;;8.00;99.90;;;;;;5056684;28;20058;-80
2021/12/01 12:40:41;;;;;;;12.73;1.83;;;8.00;99.90;;;;;;5057636;28;20048;-80
2021/12/01 12:43:23;;;;;;;15.98;3.25;;;8.00;99.90;;;;;;5062878;28;20146;-80
2021/12/01 12:46:10;;;;;;;18.13;2.20;;;8.00;99.90;;;;;;5063189;28;20132;-81
2021/12/01 12:48:43;;;;;;;17.83;2.30;;;7.90;99.90;;;;;;5056363;28;20385;-81
2021/12/01 12:51:10;;;;;;;14.40;2.25;;;7.90;99.90;;;;;;5063234;28;20596;-78
2021/12/01 12:53:37;;;;;;;14.57;2.35;;;7.80;99.90;;;;;;5054188;28;20039;-80
2021/12/01 12:56:31;;;;;;;14.77;2.42;;;7.80;99.90;;;;;;5079842;28;20044;-83